Time;durP1;ratioP1;P1;durP2;ratioP2;P2;SDS_P1;SDS_P2;PMS_P1;PMS_P2;Temp;Humidity;BMP_temperature;BMP_pressure;BME280_temperature;BME280_humidity;BME280_pressure;Samples;Min_cycle;Max_cycle;Signal;HPM_P1;HPM_P2
2021/01/21 00:01:18;;;;;;;3.43;1.80;;;;;;;2.04;66.11;94121.88;4979409;28;20206;-76
2021/01/21 00:03:43;;;;;;;2.87;1.80;;;;;;;2.01;66.21;94127.25;4995455;28;20217;-76
2021/01/21 00:06:09;;;;;;;3.50;1.90;;;;;;;2.09;65.40;94125.66;4978564;28;20234;-75
2021/01/21 00:08:34;;;;;;;2.90;1.63;;;;;;;2.07;66.00;94116.50;5012860;28;20539;-76
2021/01/21 00:10:59;;;;;;;2.17;1.97;;;;;;;2.02;65.91;94114.31;5012792;28;20176;-75
2021/01/21 00:13:24;;;;;;;2.23;1.80;;;;;;;2.05;65.70;94115.81;4995369;28;20176;-75
2021/01/21 00:15:50;;;;;;;2.47;2.03;;;;;;;2.00;66.12;94111.06;4994857;28;20203;-75
2021/01/21 00:18:15;;;;;;;2.67;1.60;;;;;;;1.98;66.06;94108.66;5012801;28;20221;-76
2021/01/21 00:20:40;;;;;;;3.70;2.10;;;;;;;1.99;65.90;94114.56;5012487;28;20523;-76
2021/01/21 00:23:06;;;;;;;2.33;1.87;;;;;;;2.06;65.68;94112.31;4995029;28;20654;-76
2021/01/21 00:25:31;;;;;;;2.07;1.87;;;;;;;2.08;65.33;94108.66;4994698;28;20187;-75
2021/01/21 00:27:56;;;;;;;3.20;1.63;;;;;;;2.16;64.39;94108.00;5012520;28;20175;-76
2021/01/21 00:30:22;;;;;;;3.33;1.53;;;;;;;2.15;64.52;94109.75;4995085;28;20195;-76
2021/01/21 00:32:47;;;;;;;2.30;1.70;;;;;;;2.16;64.34;94111.38;4994854;28;20218;-76
2021/01/21 00:35:16;;;;;;;2.40;1.73;;;;;;;2.23;64.18;94116.78;4994326;28;20203;-76
2021/01/21 00:37:42;;;;;;;3.83;1.70;;;;;;;2.32;63.52;94103.19;4994795;28;20175;-75
2021/01/21 00:40:08;;;;;;;2.13;1.60;;;;;;;2.33;63.34;94107.38;4994791;28;20183;-75
2021/01/21 00:42:33;;;;;;;1.80;1.47;;;;;;;2.29;63.32;94100.88;5011168;28;20261;-75
2021/01/21 00:44:59;;;;;;;2.03;1.60;;;;;;;2.22;63.80;94098.06;4994391;28;20261;-76
2021/01/21 00:47:24;;;;;;;1.87;1.27;;;;;;;2.37;62.77;94095.91;4978447;28;20171;-76
2021/01/21 00:49:50;;;;;;;2.60;1.43;;;;;;;2.47;62.21;94093.34;5012075;28;20761;-76
2021/01/21 00:52:15;;;;;;;2.37;1.43;;;;;;;2.49;62.84;94092.28;4994575;28;20177;-76
2021/01/21 00:54:40;;;;;;;3.40;1.67;;;;;;;2.57;62.20;94078.00;5011387;28;20197;-76
2021/01/21 00:57:06;;;;;;;3.47;1.83;;;;;;;2.58;62.44;94071.94;4994533;28;20207;-75
2021/01/21 00:59:31;;;;;;;2.03;1.77;;;;;;;2.54;63.06;94061.94;5012085;28;20179;-75
2021/01/21 01:01:56;;;;;;;3.57;1.70;;;;;;;2.57;62.88;94062.63;5012048;28;20171;-76
2021/01/21 01:04:22;;;;;;;4.90;4.07;;;;;;;2.52;63.61;94060.44;5011523;28;20179;-75
2021/01/21 01:06:47;;;;;;;2.67;1.90;;;;;;;2.54;63.06;94054.25;4994318;28;20198;-76
2021/01/21 01:09:12;;;;;;;2.30;1.60;;;;;;;2.51;63.53;94053.72;4994329;28;20214;-75
2021/01/21 01:11:38;;;;;;;3.63;1.80;;;;;;;2.53;63.47;94052.63;4994467;28;20237;-75
2021/01/21 01:14:03;;;;;;;3.77;1.90;;;;;;;2.49;63.40;94058.97;4994395;28;20211;-76
2021/01/21 01:16:28;;;;;;;1.77;1.40;;;;;;;2.51;63.31;94049.41;4977812;28;20225;-76
2021/01/21 01:18:54;;;;;;;4.00;1.80;;;;;;;2.49;62.76;94033.34;4994140;28;20246;-76
2021/01/21 01:21:19;;;;;;;2.60;1.67;;;;;;;2.57;62.42;94042.94;4978244;28;20176;-76
2021/01/21 01:23:44;;;;;;;1.93;1.50;;;;;;;2.68;62.37;94044.53;4994221;28;20187;-75
2021/01/21 01:26:10;;;;;;;2.23;1.70;;;;;;;2.65;62.29;94042.22;5011439;28;20721;-76
2021/01/21 01:28:37;;;;;;;2.07;1.30;;;;;;;2.65;62.39;94043.06;4994279;28;20207;-76
2021/01/21 01:31:03;;;;;;;3.50;1.80;;;;;;;2.63;62.68;94046.69;4994221;28;20681;-76
2021/01/21 01:33:28;;;;;;;4.63;1.80;;;;;;;2.68;62.11;94041.97;4994041;28;20250;-76
2021/01/21 01:35:53;;;;;;;2.40;1.57;;;;;;;2.62;62.77;94040.75;4993726;28;20207;-76
2021/01/21 01:38:19;;;;;;;1.83;1.50;;;;;;;2.63;62.62;94037.25;5011729;28;20175;-75
2021/01/21 01:40:44;;;;;;;2.60;1.40;;;;;;;2.62;62.76;94040.75;5011651;28;20182;-76
2021/01/21 01:43:09;;;;;;;2.53;1.40;;;;;;;2.63;62.43;94036.44;5011588;28;20180;-76
2021/01/21 01:45:34;;;;;;;3.73;1.80;;;;;;;2.66;62.84;94031.88;4993838;28;20191;-75
2021/01/21 01:48:00;;;;;;;1.77;1.10;;;;;;;2.68;62.64;94032.53;4993845;28;20589;-76
2021/01/21 01:50:25;;;;;;;3.00;1.50;;;;;;;2.70;62.64;94022.13;4993902;28;20234;-75
2021/01/21 01:52:52;;;;;;;1.30;1.20;;;;;;;2.80;62.19;94026.28;4977935;28;20176;-76
2021/01/21 01:55:17;;;;;;;2.40;1.57;;;;;;;2.75;62.65;94027.66;4993614;28;20269;-76
2021/01/21 01:57:47;;;;;;;2.77;1.57;;;;;;;2.80;62.14;94021.16;4994022;28;20887;-75
2021/01/21 02:00:12;;;;;;;1.83;1.37;;;;;;;2.78;62.58;94015.38;4993951;28;20375;-76
2021/01/21 02:02:38;;;;;;;1.63;1.07;;;;;;;2.70;62.73;94017.81;5011139;28;20186;-76
2021/01/21 02:05:04;;;;;;;2.50;1.40;;;;;;;2.72;62.81;94017.66;4993364;28;20275;-75
2021/01/21 02:07:29;;;;;;;2.93;1.40;;;;;;;2.78;61.77;94010.25;4996434;28;20180;-75
2021/01/21 02:09:56;;;;;;;2.07;1.47;;;;;;;2.79;62.38;94009.28;4997559;28;20207;-76
2021/01/21 02:12:40;;;;;;;2.03;1.40;;;;;;;2.83;62.47;94004.72;4997644;28;20183;-76
2021/01/21 02:15:10;;;;;;;3.23;1.50;;;;;;;2.89;62.29;94011.84;5014464;28;20612;-76
2021/01/21 02:17:49;;;;;;;2.53;1.50;;;;;;;2.85;62.53;94010.50;4997369;28;20272;-76
2021/01/21 02:20:58;;;;;;;3.00;1.47;;;;;;;2.84;62.74;94008.91;4997479;28;20561;-76
2021/01/21 02:23:48;;;;;;;1.47;1.23;;;;;;;2.85;62.52;93997.69;5000666;28;20262;-75
2021/01/21 02:26:44;;;;;;;1.57;1.47;;;;;;;2.85;63.02;93990.00;4996885;28;20703;-75
2021/01/21 02:29:44;;;;;;;2.13;1.27;;;;;;;2.80;62.88;93985.28;4918875;29;20277;-76
2021/01/21 02:32:38;;;;;;;2.33;1.27;;;;;;;2.82;62.95;93980.81;4847338;29;20181;-75
2021/01/21 02:35:12;;;;;;;3.03;1.37;;;;;;;2.87;63.20;93982.97;4874007;29;20213;-75
2021/01/21 02:37:45;;;;;;;2.23;1.73;;;;;;;2.97;61.69;93978.63;4862788;29;20183;-75
2021/01/21 02:40:13;;;;;;;1.40;1.30;;;;;;;3.11;61.18;93979.94;4846967;29;20187;-76
2021/01/21 02:42:48;;;;;;;2.50;1.10;;;;;;;3.21;60.96;93977.31;4862695;29;20180;-75
2021/01/21 02:45:14;;;;;;;2.40;1.40;;;;;;;3.33;61.03;93968.50;4877799;29;20234;-75
2021/01/21 02:47:39;;;;;;;2.20;1.50;;;;;;;3.30;61.07;93963.66;4878061;29;20232;-76
2021/01/21 02:50:05;;;;;;;3.60;1.40;;;;;;;3.37;60.26;93960.38;4878030;29;20272;-75
2021/01/21 02:52:43;;;;;;;3.17;1.40;;;;;;;3.55;59.77;93967.31;4847054;29;20810;-75
2021/01/21 02:55:14;;;;;;;1.77;1.33;;;;;;;3.45;59.95;93959.66;4877618;29;20200;-75
2021/01/21 02:57:41;;;;;;;1.67;1.37;;;;;;;3.51;59.92;93955.69;4862574;29;20683;-76
2021/01/21 03:00:09;;;;;;;1.90;1.40;;;;;;;3.51;59.85;93958.28;4846827;29;20697;-75
2021/01/21 03:02:56;;;;;;;2.17;1.10;;;;;;;3.55;59.15;93963.00;4877824;29;20280;-76
2021/01/21 03:05:22;;;;;;;1.03;0.97;;;;;;;3.57;58.76;93966.22;4893309;28;20224;-76
2021/01/21 03:07:48;;;;;;;2.67;1.23;;;;;;;3.49;59.86;93981.50;4996531;28;20554;-76
2021/01/21 03:10:18;;;;;;;2.40;1.10;;;;;;;3.45;60.29;93969.13;4996377;28;20185;-76
2021/01/21 03:12:43;;;;;;;1.57;1.10;;;;;;;3.47;60.27;93968.03;5014234;28;20178;-75
2021/01/21 03:15:09;;;;;;;1.67;1.53;;;;;;;3.35;60.97;93972.53;5013488;28;20660;-76
2021/01/21 03:17:34;;;;;;;2.27;1.70;;;;;;;3.41;60.92;93981.41;5013318;28;20270;-76
2021/01/21 03:19:59;;;;;;;2.23;1.00;;;;;;;3.41;60.52;93973.72;5013996;28;20189;-75
2021/01/21 03:22:24;;;;;;;2.20;1.40;;;;;;;3.32;61.54;93970.25;4996425;28;20202;-76
2021/01/21 03:24:50;;;;;;;1.73;1.30;;;;;;;3.22;61.97;93973.81;5013403;28;20193;-76
2021/01/21 03:27:15;;;;;;;3.03;1.30;;;;;;;3.18;61.91;93967.31;4996035;28;20200;-75
2021/01/21 03:29:40;;;;;;;1.53;1.30;;;;;;;3.15;61.99;93967.63;5013618;28;20186;-76
2021/01/21 03:32:06;;;;;;;2.63;1.30;;;;;;;3.18;62.12;93973.28;4996079;28;20177;-75
2021/01/21 03:34:31;;;;;;;3.00;1.37;;;;;;;3.12;62.70;93979.78;4995544;28;20176;-75
2021/01/21 03:36:57;;;;;;;4.07;1.67;;;;;;;3.06;62.59;93982.09;4979674;28;20207;-76
2021/01/21 03:39:22;;;;;;;2.00;1.47;;;;;;;2.99;62.84;93983.59;4996112;28;20190;-75
2021/01/21 03:41:51;;;;;;;1.20;1.10;;;;;;;2.96;62.66;93979.56;5013425;28;20262;-75
2021/01/21 03:44:17;;;;;;;2.00;1.30;;;;;;;3.04;62.42;93982.25;4995617;28;20219;-77
2021/01/21 03:46:42;;;;;;;1.20;1.10;;;;;;;3.14;61.75;93974.50;5013205;28;20227;-75
2021/01/21 03:49:08;;;;;;;2.20;1.40;;;;;;;3.24;61.03;93974.47;4995670;28;20187;-75
2021/01/21 03:51:33;;;;;;;1.77;1.20;;;;;;;3.27;61.10;93975.00;4979429;28;20204;-76
2021/01/21 03:53:58;;;;;;;1.57;1.20;;;;;;;3.20;61.08;93968.03;5013118;28;20185;-75
2021/01/21 03:56:24;;;;;;;1.53;1.10;;;;;;;3.28;60.97;93975.81;4979001;28;20207;-76
2021/01/21 03:58:49;;;;;;;3.93;1.40;;;;;;;3.26;61.20;93973.38;4995546;28;20179;-76
2021/01/21 04:01:14;;;;;;;1.40;1.23;;;;;;;3.37;59.95;93965.50;5013091;28;20233;-75
2021/01/21 04:03:39;;;;;;;1.10;1.00;;;;;;;3.38;60.40;93958.63;4995266;28;20184;-76
2021/01/21 04:06:05;;;;;;;1.20;1.10;;;;;;;3.32;60.40;93954.06;4994898;28;20692;-76
2021/01/21 04:08:30;;;;;;;2.00;1.37;;;;;;;3.40;60.15;93951.56;4995424;28;20239;-76
2021/01/21 04:10:55;;;;;;;2.57;1.13;;;;;;;3.47;59.38;93954.38;4995098;28;20559;-76
2021/01/21 04:13:21;;;;;;;1.93;1.60;;;;;;;3.64;58.48;93951.84;4995337;28;20182;-75
2021/01/21 04:15:46;;;;;;;2.47;1.30;;;;;;;3.47;59.65;93960.31;4994818;28;20297;-75
2021/01/21 04:18:14;;;;;;;0.97;0.97;;;;;;;3.41;60.13;93960.88;4994890;28;20190;-75
2021/01/21 04:20:40;;;;;;;2.37;1.10;;;;;;;3.29;60.30;93964.59;4995120;28;20176;-75
2021/01/21 04:23:05;;;;;;;2.40;1.17;;;;;;;3.28;60.09;93968.13;4978857;28;20669;-76
2021/01/21 04:25:31;;;;;;;3.83;1.03;;;;;;;3.29;60.07;93977.44;5012365;28;20190;-76
2021/01/21 04:27:56;;;;;;;3.10;1.50;;;;;;;3.28;60.41;93971.50;4978669;28;20177;-75
2021/01/21 04:30:22;;;;;;;1.40;1.17;;;;;;;3.12;60.98;93974.66;4994355;28;20248;-75
2021/01/21 04:32:47;;;;;;;2.03;1.27;;;;;;;3.09;61.08;93977.50;5012234;28;20589;-75
2021/01/21 04:35:12;;;;;;;1.93;1.30;;;;;;;2.95;61.77;93985.66;5012029;28;20200;-75
2021/01/21 04:37:38;;;;;;;2.77;1.40;;;;;;;2.89;62.03;93985.38;5012425;28;20181;-75
2021/01/21 04:40:03;;;;;;;2.83;1.37;;;;;;;2.97;61.87;93988.88;4994749;28;20171;-75
2021/01/21 04:42:29;;;;;;;2.23;1.00;;;;;;;2.98;61.09;93987.13;4978520;28;20183;-75
2021/01/21 04:44:54;;;;;;;2.13;1.10;;;;;;;3.13;60.71;93989.09;4994381;28;20196;-75
2021/01/21 04:47:21;;;;;;;3.17;1.17;;;;;;;3.12;61.03;93996.94;4994640;28;20739;-75
2021/01/21 04:49:47;;;;;;;2.27;1.40;;;;;;;3.10;60.59;93994.50;4978332;28;20215;-75
2021/01/21 04:52:13;;;;;;;2.80;1.20;;;;;;;2.93;61.76;93984.19;5012112;28;20269;-75
2021/01/21 04:54:43;;;;;;;2.80;1.20;;;;;;;2.81;61.92;93984.31;4994430;28;20179;-74
2021/01/21 04:57:14;;;;;;;1.23;1.10;;;;;;;2.99;60.78;93981.03;4994627;28;20212;-75
2021/01/21 04:59:40;;;;;;;1.20;1.10;;;;;;;3.06;60.66;93993.16;4994471;28;20181;-75
2021/01/21 05:02:06;;;;;;;2.37;1.23;;;;;;;2.92;61.70;93988.50;4994361;28;20179;-75
2021/01/21 05:04:32;;;;;;;2.33;1.07;;;;;;;3.08;60.75;93990.44;4994186;28;20258;-73
2021/01/21 05:06:58;;;;;;;1.40;1.10;;;;;;;3.27;59.77;93979.31;4978140;28;20625;-75
2021/01/21 05:09:24;;;;;;;2.23;1.57;;;;;;;3.36;59.80;93988.75;4994485;28;20171;-74
2021/01/21 05:11:49;;;;;;;3.30;1.30;;;;;;;3.29;60.25;93982.56;4978152;28;20196;-74
2021/01/21 05:14:15;;;;;;;1.67;1.30;;;;;;;3.45;59.03;93985.34;5011699;28;20175;-75
2021/01/21 05:16:43;;;;;;;1.20;1.00;;;;;;;3.59;59.42;93969.44;4993975;28;20271;-74
2021/01/21 05:19:14;;;;;;;2.23;1.23;;;;;;;3.79;58.18;93984.72;4994292;28;20179;-75
2021/01/21 05:21:40;;;;;;;3.10;1.20;;;;;;;3.67;59.29;93986.69;4994414;28;20176;-75
2021/01/21 05:24:07;;;;;;;3.20;1.50;;;;;;;3.61;59.40;93976.97;4994026;28;20197;-75
2021/01/21 05:26:32;;;;;;;1.40;1.23;;;;;;;3.55;59.69;93977.59;4993906;28;20256;-74
2021/01/21 05:28:57;;;;;;;1.53;1.10;;;;;;;3.68;59.43;93968.56;4994063;28;20694;-75
2021/01/21 05:31:29;;;;;;;1.50;1.27;;;;;;;3.68;59.47;93966.00;5011598;28;20682;-73
2021/01/21 05:33:55;;;;;;;1.43;1.30;;;;;;;3.76;59.24;93964.47;4994271;28;20541;-76
2021/01/21 05:36:21;;;;;;;2.77;1.30;;;;;;;3.79;59.39;93962.41;4993904;28;20222;-74
2021/01/21 05:38:59;;;;;;;2.03;1.13;;;;;;;3.72;60.02;93961.41;4977915;28;20179;-75
2021/01/21 05:41:25;;;;;;;1.90;1.03;;;;;;;3.81;59.22;93962.28;4996400;28;20188;-74
2021/01/21 05:43:50;;;;;;;1.00;0.90;;;;;;;3.97;59.05;93952.97;4998055;28;20326;-74
2021/01/21 05:46:17;;;;;;;2.10;1.00;;;;;;;3.86;59.64;93975.50;4981286;28;20238;-74
2021/01/21 05:48:43;;;;;;;1.17;1.03;;;;;;;3.80;60.47;93961.50;4981551;28;20822;-75
2021/01/21 05:51:08;;;;;;;1.70;1.33;;;;;;;3.82;60.18;93956.22;4997840;28;20262;-74
2021/01/21 05:53:34;;;;;;;1.50;1.20;;;;;;;3.87;59.96;93956.56;4997811;28;20286;-73
2021/01/21 05:55:59;;;;;;;1.63;1.10;;;;;;;3.96;59.77;93940.28;5014766;28;20291;-74
2021/01/21 05:58:25;;;;;;;1.83;1.10;;;;;;;3.93;60.31;93945.72;4997581;28;20550;-75
2021/01/21 06:00:50;;;;;;;1.43;1.10;;;;;;;4.19;59.55;93930.38;5014942;28;20184;-75
2021/01/21 06:03:16;;;;;;;1.73;1.10;;;;;;;4.20;59.29;93937.13;4997786;28;20186;-74
2021/01/21 06:05:42;;;;;;;1.07;0.97;;;;;;;4.06;60.32;93946.13;4997046;28;20257;-75
2021/01/21 06:08:11;;;;;;;1.57;1.13;;;;;;;4.41;59.00;93950.44;4997635;28;20635;-76
2021/01/21 06:10:36;;;;;;;3.77;1.00;;;;;;;4.33;59.46;93952.13;4997474;28;20639;-75
2021/01/21 06:13:05;;;;;;;1.87;1.13;;;;;;;4.44;59.48;93950.16;4997499;28;20175;-74
2021/01/21 06:15:31;;;;;;;0.90;0.87;;;;;;;4.48;59.68;93955.81;4997009;28;20208;-76
2021/01/21 06:17:57;;;;;;;1.33;0.83;;;;;;;4.46;59.94;93947.44;5015145;28;20233;-73
2021/01/21 06:20:22;;;;;;;2.43;0.90;;;;;;;4.45;59.90;93966.41;4997449;28;20182;-74
2021/01/21 06:22:48;;;;;;;1.00;0.90;;;;;;;4.43;60.35;93961.41;4997285;28;20192;-76
2021/01/21 06:25:18;;;;;;;0.83;0.83;;;;;;;4.54;60.08;93962.94;4997124;28;20238;-73
2021/01/21 06:27:45;;;;;;;1.33;0.93;;;;;;;4.56;59.98;93968.72;4980920;28;20226;-75
2021/01/21 06:30:15;;;;;;;2.07;1.00;;;;;;;4.58;60.83;93971.13;4997499;28;20197;-74
2021/01/21 06:33:02;;;;;;;1.23;0.97;;;;;;;4.77;60.34;93968.38;4997420;28;20229;-74
2021/01/21 06:35:35;;;;;;;0.80;0.80;;;;;;;4.80;60.55;93958.59;4980568;28;20207;-75
2021/01/21 06:38:15;;;;;;;1.00;0.90;;;;;;;4.80;60.87;93960.38;4980739;28;20175;-74
2021/01/21 06:40:44;;;;;;;1.37;1.07;;;;;;;4.67;61.94;93965.91;4997181;28;20570;-74
2021/01/21 06:43:15;;;;;;;1.40;0.90;;;;;;;4.81;61.16;93962.78;4997070;28;20671;-74
2021/01/21 06:45:41;;;;;;;1.67;1.37;;;;;;;4.75;61.67;93962.59;4996574;28;20187;-73
2021/01/21 06:48:09;;;;;;;1.87;1.00;;;;;;;4.82;62.19;93959.25;4996964;28;20183;-73
2021/01/21 06:50:34;;;;;;;1.40;1.30;;;;;;;4.76;62.61;93962.41;4996887;28;20180;-74
2021/01/21 06:53:03;;;;;;;1.43;0.90;;;;;;;4.86;62.78;93956.38;4996124;28;20171;-76
2021/01/21 06:55:29;;;;;;;1.83;1.13;;;;;;;4.83;62.62;93953.16;4996495;28;20211;-75
2021/01/21 06:57:55;;;;;;;3.37;0.93;;;;;;;4.84;62.93;93957.34;4996606;28;20237;-75
2021/01/21 07:00:38;;;;;;;0.97;0.90;;;;;;;4.75;63.13;93972.88;5014184;28;20175;-76
2021/01/21 07:03:03;;;;;;;0.87;0.87;;;;;;;4.83;62.67;93950.56;4996610;28;20274;-75
2021/01/21 07:05:29;;;;;;;0.80;0.80;;;;;;;4.71;63.69;93964.66;4995993;28;20302;-75
2021/01/21 07:08:00;;;;;;;3.07;0.93;;;;;;;4.76;63.63;93971.91;4996573;28;20263;-75
2021/01/21 07:10:26;;;;;;;3.03;1.00;;;;;;;4.78;63.65;93963.09;5014336;28;20191;-75
2021/01/21 07:12:53;;;;;;;2.30;1.07;;;;;;;4.69;63.33;93958.06;4980221;28;20209;-75
2021/01/21 07:15:28;;;;;;;1.30;1.00;;;;;;;4.60;63.88;93959.75;4996005;28;20682;-75
2021/01/21 07:17:53;;;;;;;1.57;0.93;;;;;;;4.49;64.12;93958.22;4996575;28;20205;-75
2021/01/21 07:20:19;;;;;;;1.00;0.90;;;;;;;4.50;64.68;93956.44;5013869;28;20186;-76
2021/01/21 07:22:45;;;;;;;1.30;1.00;;;;;;;4.33;65.09;93963.25;4996412;28;20183;-75
2021/01/21 07:25:12;;;;;;;1.77;0.90;;;;;;;4.33;65.44;93957.28;4996013;28;20202;-75
2021/01/21 07:27:39;;;;;;;1.43;0.80;;;;;;;4.35;65.88;93965.69;4996038;28;20212;-75
2021/01/21 07:30:17;;;;;;;1.63;1.13;;;;;;;4.32;66.14;93966.75;4979850;28;20186;-76
2021/01/21 07:32:42;;;;;;;1.60;1.23;;;;;;;4.39;65.85;93967.78;5013582;28;20185;-75
2021/01/21 07:35:31;;;;;;;0.73;0.70;;;;;;;4.40;66.44;93960.88;4979363;28;20191;-76
2021/01/21 07:37:56;;;;;;;1.53;0.90;;;;;;;4.42;66.93;93971.84;5005290;28;20199;-75
2021/01/21 07:40:40;;;;;;;1.87;1.07;;;;;;;4.35;66.99;93961.34;5013422;28;20172;-75
2021/01/21 07:43:05;;;;;;;0.90;0.90;;;;;;;4.30;67.59;93963.53;4995876;28;20171;-76
2021/01/21 07:45:31;;;;;;;1.10;1.00;;;;;;;4.40;67.97;93960.88;5013121;28;20195;-76
2021/01/21 07:47:58;;;;;;;1.37;1.00;;;;;;;4.40;67.94;93963.44;5013235;28;20650;-75
2021/01/21 07:50:32;;;;;;;0.80;0.80;;;;;;;4.38;68.30;93970.50;4979315;28;20647;-76
2021/01/21 07:53:05;;;;;;;1.20;1.10;;;;;;;4.33;67.91;93968.41;4995623;28;20184;-76
2021/01/21 07:55:32;;;;;;;1.13;1.00;;;;;;;4.36;67.75;93972.44;4995292;28;20207;-75
2021/01/21 07:58:16;;;;;;;1.73;1.10;;;;;;;4.27;68.10;93979.25;4995532;28;20191;-75
2021/01/21 08:00:41;;;;;;;1.67;1.10;;;;;;;4.35;68.03;93986.22;4995448;28;20180;-74
2021/01/21 08:03:07;;;;;;;0.90;0.90;;;;;;;4.25;68.30;93978.59;4995408;28;20211;-76
2021/01/21 08:05:32;;;;;;;1.00;1.00;;;;;;;4.25;67.67;93981.97;4994135;28;20214;-75
2021/01/21 08:07:57;;;;;;;1.27;1.00;;;;;;;4.23;67.94;93989.00;5012835;28;20269;-76
2021/01/21 08:10:27;;;;;;;1.20;0.97;;;;;;;4.25;68.05;93974.28;5012927;28;20268;-75
2021/01/21 08:12:54;;;;;;;1.30;1.00;;;;;;;4.20;68.48;93973.91;4995319;28;20267;-75
2021/01/21 08:15:20;;;;;;;0.90;0.90;;;;;;;4.17;68.75;93991.38;4994834;28;20682;-76
2021/01/21 08:17:48;;;;;;;1.70;1.13;;;;;;;4.23;68.13;93977.91;5012865;28;20203;-76
2021/01/21 08:20:13;;;;;;;1.80;1.30;;;;;;;4.40;68.04;93978.88;4995287;28;20643;-75
2021/01/21 08:23:05;;;;;;;1.23;1.10;;;;;;;4.58;67.05;93995.06;4995117;28;20183;-75
2021/01/21 08:25:40;;;;;;;2.37;0.90;;;;;;;4.68;66.69;93992.41;4978586;28;20210;-75
2021/01/21 08:28:05;;;;;;;1.50;1.30;;;;;;;4.83;66.28;93994.31;4995065;28;20257;-76
2021/01/21 08:30:31;;;;;;;1.37;0.90;;;;;;;4.93;66.39;93983.09;4994900;28;20256;-75
2021/01/21 08:33:02;;;;;;;1.30;1.00;;;;;;;5.07;66.45;93993.66;4994960;28;20630;-75
2021/01/21 08:35:30;;;;;;;1.53;1.10;;;;;;;5.15;65.82;93984.38;5012154;28;20203;-76
2021/01/21 08:37:56;;;;;;;1.83;1.00;;;;;;;5.29;65.61;93992.31;4994920;28;20546;-75
2021/01/21 08:40:22;;;;;;;1.30;0.80;;;;;;;5.25;66.07;93985.88;4994801;28;20182;-75
2021/01/21 08:42:49;;;;;;;1.43;1.20;;;;;;;5.28;65.94;93985.56;4978731;28;20555;-75
2021/01/21 08:45:15;;;;;;;4.10;1.77;;;;;;;5.43;66.55;93985.00;4994425;28;20329;-75
2021/01/21 08:47:48;;;;;;;2.73;1.03;;;;;;;5.58;65.97;93976.53;4978564;28;20556;-75
2021/01/21 08:50:15;;;;;;;0.80;0.80;;;;;;;5.66;66.17;93988.63;4994655;28;20186;-74
2021/01/21 08:53:04;;;;;;;1.33;0.90;;;;;;;5.82;65.87;93991.25;4994784;28;20183;-75
2021/01/21 08:55:41;;;;;;;1.67;1.00;;;;;;;5.93;65.72;93980.69;4978205;28;20230;-75
2021/01/21 08:58:07;;;;;;;1.80;1.00;;;;;;;5.93;65.30;93980.69;4978325;28;20182;-74
2021/01/21 09:00:35;;;;;;;0.80;0.80;;;;;;;5.98;65.61;93977.63;4994572;28;20245;-74
2021/01/21 09:03:00;;;;;;;1.40;0.80;;;;;;;5.92;65.81;93993.75;4994199;28;20258;-74
2021/01/21 09:05:27;;;;;;;1.00;0.73;;;;;;;5.99;65.97;93983.59;4994007;28;20241;-75
2021/01/21 09:08:01;;;;;;;2.37;1.10;;;;;;;6.15;65.74;93999.09;4992207;28;20179;-75
2021/01/21 09:10:35;;;;;;;1.30;0.70;;;;;;;6.33;65.55;93968.81;4994668;28;20643;-74
2021/01/21 09:13:01;;;;;;;1.53;0.60;;;;;;;6.36;65.28;93981.41;4983680;28;20590;-78
2021/01/21 09:15:26;;;;;;;1.00;0.87;;;;;;;6.39;64.89;93981.09;4987750;28;20207;-75
2021/01/21 09:18:03;;;;;;;0.97;0.73;;;;;;;6.50;64.92;93980.75;4989240;28;20183;-75
2021/01/21 09:20:30;;;;;;;0.90;0.90;;;;;;;6.42;65.79;93990.25;4993478;28;20183;-76
2021/01/21 09:22:55;;;;;;;1.53;0.67;;;;;;;6.46;65.29;93982.06;4976764;28;20704;-74
2021/01/21 09:25:25;;;;;;;0.60;0.60;;;;;;;6.78;64.96;93991.56;4975595;28;20290;-74
2021/01/21 09:27:56;;;;;;;0.90;0.70;;;;;;;6.98;63.57;93980.88;4984007;28;20186;-75
2021/01/21 09:30:22;;;;;;;0.90;0.70;;;;;;;7.09;63.95;93989.09;4988705;28;20194;-74
2021/01/21 09:32:47;;;;;;;1.27;0.60;;;;;;;7.48;62.16;93992.72;4986497;28;20225;-74
2021/01/21 09:35:14;;;;;;;0.77;0.50;;;;;;;7.77;61.83;94007.63;4975794;28;20644;-73
2021/01/21 09:37:41;;;;;;;0.40;0.40;;;;;;;8.10;60.55;93996.16;4981855;28;20654;-74
2021/01/21 09:40:08;;;;;;;1.90;0.83;;;;;;;8.33;59.55;93990.22;4967746;28;20661;-75
2021/01/21 09:42:34;;;;;;;0.77;0.50;;;;;;;8.45;59.63;94009.56;4974537;28;20230;-74
2021/01/21 09:45:02;;;;;;;0.77;0.40;;;;;;;8.53;59.15;93993.97;4990216;28;20207;-75
2021/01/21 09:47:27;;;;;;;0.83;0.73;;;;;;;8.57;59.12;93997.84;4992277;28;20171;-75
2021/01/21 09:49:53;;;;;;;1.03;0.50;;;;;;;8.63;58.86;94004.91;4975644;28;20278;-76
2021/01/21 09:52:18;;;;;;;0.80;0.33;;;;;;;8.56;58.99;93998.81;4993546;28;20194;-73
2021/01/21 09:54:44;;;;;;;1.90;0.53;;;;;;;8.61;58.79;94004.28;4962398;28;20208;-76
2021/01/21 09:57:09;;;;;;;0.53;0.53;;;;;;;8.72;58.35;94011.63;4975378;28;20235;-76
2021/01/21 09:59:35;;;;;;;0.57;0.57;;;;;;;8.80;58.53;94003.78;4972185;28;20611;-76
2021/01/21 10:02:00;;;;;;;2.23;0.60;;;;;;;8.90;58.13;93995.78;4977203;28;20207;-74
2021/01/21 10:04:26;;;;;;;0.40;0.37;;;;;;;9.01;57.69;94012.69;4987297;28;20184;-76
2021/01/21 10:06:52;;;;;;;0.77;0.50;;;;;;;9.09;57.11;94016.00;4991626;28;20326;-74
2021/01/21 10:09:17;;;;;;;1.43;0.50;;;;;;;9.01;57.61;94008.34;4995745;28;20187;-76
2021/01/21 10:11:43;;;;;;;1.00;0.70;;;;;;;8.98;57.77;94018.22;4988342;28;20198;-75
2021/01/21 10:14:08;;;;;;;0.53;0.40;;;;;;;8.82;59.37;94020.94;4966259;28;20326;-75
2021/01/21 10:16:33;;;;;;;0.50;0.40;;;;;;;8.70;60.64;94042.06;4998346;28;20211;-74
2021/01/21 10:18:59;;;;;;;1.33;0.50;;;;;;;8.58;61.03;94017.56;4990784;28;20187;-76
2021/01/21 10:21:24;;;;;;;0.40;0.40;;;;;;;8.49;61.88;94049.66;4975964;28;20184;-77
2021/01/21 10:23:53;;;;;;;0.70;0.50;;;;;;;8.32;63.24;94032.56;4977410;28;20192;-75
2021/01/21 10:26:19;;;;;;;0.50;0.50;;;;;;;8.16;65.53;94029.09;4997469;28;20203;-75
2021/01/21 10:28:44;;;;;;;0.50;0.50;;;;;;;8.29;65.86;94025.13;4971871;28;20207;-77
2021/01/21 10:31:10;;;;;;;0.97;0.40;;;;;;;8.31;64.73;94026.59;4993368;28;20195;-76
2021/01/21 10:33:39;;;;;;;2.20;0.50;;;;;;;8.21;64.51;94026.78;5006083;28;20183;-76
2021/01/21 10:36:05;;;;;;;1.13;0.50;;;;;;;8.36;63.69;94026.09;4963017;28;20584;-75
2021/01/21 10:38:31;;;;;;;1.90;0.60;;;;;;;8.33;63.81;94009.13;4981051;28;20558;-75
2021/01/21 10:40:56;;;;;;;0.60;0.60;;;;;;;8.34;63.13;94025.44;4990975;28;20187;-76
2021/01/21 10:43:21;;;;;;;0.40;0.40;;;;;;;8.29;63.51;94031.13;4992610;28;20603;-75
2021/01/21 10:45:46;;;;;;;0.60;0.40;;;;;;;8.45;63.49;94056.13;4979091;28;20211;-76
2021/01/21 10:48:12;;;;;;;1.03;0.63;;;;;;;8.33;63.80;94027.22;4993118;28;20183;-76
2021/01/21 10:50:37;;;;;;;0.20;0.20;;;;;;;8.23;63.57;94030.03;4987386;28;20183;-76
2021/01/21 10:53:02;;;;;;;0.80;0.50;;;;;;;8.14;63.54;94038.81;5002069;28;20734;-75
2021/01/21 10:55:28;;;;;;;0.60;0.60;;;;;;;8.09;63.45;94051.44;4981053;28;20669;-76
2021/01/21 10:57:53;;;;;;;0.50;0.50;;;;;;;8.00;63.86;94042.09;5010515;28;20237;-75
2021/01/21 11:00:20;;;;;;;0.67;0.63;;;;;;;7.91;64.69;94045.69;4995732;28;20223;-75
2021/01/21 11:02:45;;;;;;;0.50;0.50;;;;;;;7.88;65.05;94040.88;4995276;28;20187;-76
2021/01/21 11:05:11;;;;;;;0.60;0.60;;;;;;;7.84;65.54;94049.91;5000712;28;20218;-76
2021/01/21 11:07:36;;;;;;;0.57;0.50;;;;;;;7.86;67.15;94042.78;4966245;28;20257;-76
2021/01/21 11:10:02;;;;;;;0.70;0.60;;;;;;;7.80;67.88;94069.31;5009224;28;20191;-75
2021/01/21 11:12:27;;;;;;;1.73;0.63;;;;;;;7.64;69.64;94060.63;4988931;28;20194;-76
2021/01/21 11:14:53;;;;;;;1.20;0.77;;;;;;;7.52;70.11;94061.16;4981416;28;20257;-75
2021/01/21 11:17:20;;;;;;;1.67;0.70;;;;;;;7.42;70.27;94045.84;5008260;28;20678;-74
2021/01/21 11:19:45;;;;;;;0.63;0.60;;;;;;;7.37;70.62;94063.63;4989788;28;20183;-75
2021/01/21 11:22:11;;;;;;;0.80;0.70;;;;;;;7.32;71.86;94058.13;4985547;28;20192;-75
2021/01/21 11:24:36;;;;;;;2.97;0.60;;;;;;;7.34;72.76;94051.03;5006973;28;20198;-76
2021/01/21 11:27:01;;;;;;;2.07;1.40;;;;;;;7.28;72.70;94051.69;4964552;28;20212;-74
2021/01/21 11:29:27;;;;;;;1.17;0.90;;;;;;;7.34;71.65;94051.03;4976436;28;20704;-75
2021/01/21 11:31:53;;;;;;;0.60;0.60;;;;;;;7.31;71.79;94049.56;5003441;28;20195;-75
2021/01/21 11:34:19;;;;;;;0.50;0.50;;;;;;;7.26;72.58;94044.09;4975956;28;20524;-74
2021/01/21 11:36:44;;;;;;;0.57;0.57;;;;;;;7.20;71.97;94043.94;4989042;28;20207;-74
2021/01/21 11:39:10;;;;;;;0.73;0.60;;;;;;;7.23;72.55;94056.53;4977729;28;20223;-74
2021/01/21 11:41:35;;;;;;;0.60;0.60;;;;;;;7.17;73.03;94052.84;4973175;28;20213;-75
2021/01/21 11:44:01;;;;;;;1.40;0.87;;;;;;;7.17;73.85;94052.84;4986554;28;20183;-74